createdAt,value
2017-10-14T00:01:31.536Z,48.83
2017-10-14T00:03:57.815Z,44.67
2017-10-14T00:06:24.848Z,54.23
2017-10-14T00:08:51.151Z,39.90
2017-10-14T00:11:17.408Z,50.60
2017-10-14T00:13:44.375Z,49.53
2017-10-14T00:16:11.672Z,51.90
2017-10-14T00:18:38.650Z,54.57
2017-10-14T00:21:04.931Z,51.50
2017-10-14T00:23:32.751Z,52.67
2017-10-14T00:25:58.996Z,54.37
2017-10-14T00:28:25.305Z,50.90
2017-10-14T00:30:52.329Z,62.20
2017-10-14T00:33:18.582Z,50.77
2017-10-14T00:35:44.891Z,54.20
2017-10-14T00:38:11.940Z,58.43
2017-10-14T00:40:39.683Z,53.80
2017-10-14T00:43:05.956Z,58.17
2017-10-14T00:45:32.324Z,52.40
2017-10-14T00:47:59.314Z,53.90
2017-10-14T00:50:25.602Z,52.27
2017-10-14T00:52:52.695Z,55.13
2017-10-14T00:55:18.963Z,49.77
2017-10-14T00:57:46.699Z,53.87
2017-10-14T01:00:12.978Z,48.27
2017-10-14T01:02:39.994Z,58.30
2017-10-14T01:05:06.260Z,50.53
2017-10-14T01:07:32.545Z,52.47
2017-10-14T01:09:58.845Z,49.27
2017-10-14T01:12:25.113Z,47.83
2017-10-14T01:14:51.423Z,48.90
2017-10-14T01:17:18.810Z,54.93
2017-10-14T01:19:45.079Z,46.60
2017-10-14T01:22:11.375Z,49.23
2017-10-14T01:24:37.635Z,55.67
2017-10-14T01:27:03.906Z,44.67
2017-10-14T01:29:30.954Z,54.23
2017-10-14T01:31:57.248Z,50.47
2017-10-14T01:34:23.526Z,44.17
2017-10-14T01:36:51.287Z,47.07
2017-10-14T01:39:17.550Z,45.63
2017-10-14T01:41:44.559Z,40.07
2017-10-14T01:44:10.826Z,43.57
2017-10-14T01:46:38.562Z,51.90
2017-10-14T01:49:04.803Z,37.80
2017-10-14T01:51:31.121Z,51.40
2017-10-14T01:53:58.059Z,47.50
2017-10-14T01:56:24.568Z,49.20
2017-10-14T01:58:50.863Z,40.43
2017-10-14T02:01:17.128Z,36.70
2017-10-14T02:03:43.408Z,37.70
2017-10-14T02:06:09.730Z,40.50
2017-10-14T02:08:36.751Z,43.50
2017-10-14T02:11:03.778Z,40.50
2017-10-14T02:13:30.054Z,32.87
2017-10-14T02:15:56.306Z,40.27
2017-10-14T02:18:24.265Z,35.93
2017-10-14T02:20:51.276Z,36.90
2017-10-14T02:23:17.597Z,33.90
2017-10-14T02:25:43.844Z,35.20
2017-10-14T02:28:10.146Z,41.97
2017-10-14T02:30:36.430Z,32.83
2017-10-14T02:33:02.711Z,37.40
2017-10-14T02:35:29.755Z,41.17
2017-10-14T02:37:56.743Z,38.93
2017-10-14T02:40:23.012Z,36.20
2017-10-14T02:42:49.307Z,27.60
2017-10-14T02:45:15.573Z,34.57
2017-10-14T02:47:41.815Z,42.17
2017-10-14T02:50:08.095Z,45.27
2017-10-14T02:52:34.407Z,41.17
2017-10-14T02:55:00.667Z,44.20
2017-10-14T02:57:27.701Z,40.97
2017-10-14T02:59:54.707Z,39.40
2017-10-14T03:02:20.977Z,31.40
2017-10-14T03:04:48.191Z,40.23
2017-10-14T03:07:14.510Z,37.53
2017-10-14T03:09:40.754Z,41.83
2017-10-14T03:12:07.050Z,49.30
2017-10-14T03:14:33.310Z,45.03
2017-10-14T03:16:59.663Z,40.07
2017-10-14T03:19:26.124Z,32.20
2017-10-14T03:21:52.386Z,39.83
2017-10-14T03:24:20.122Z,45.33
2017-10-14T03:26:46.391Z,44.17
2017-10-14T03:29:12.647Z,41.30
2017-10-14T03:31:38.911Z,39.80
2017-10-14T03:34:05.343Z,36.90
2017-10-14T03:36:31.621Z,36.40
2017-10-14T03:38:57.919Z,43.73
2017-10-14T03:41:24.210Z,39.10
2017-10-14T03:43:51.942Z,34.27
2017-10-14T03:46:18.239Z,43.83
2017-10-14T03:48:44.527Z,42.03
2017-10-14T03:51:10.801Z,46.20
2017-10-14T03:53:37.802Z,36.67
2017-10-14T03:56:04.095Z,36.13
2017-10-14T03:58:30.387Z,36.87
2017-10-14T04:00:56.631Z,38.60
2017-10-14T04:03:24.410Z,36.83
2017-10-14T04:05:52.159Z,35.30
2017-10-14T04:08:18.407Z,33.00
2017-10-14T04:10:44.699Z,32.60
2017-10-14T04:13:10.955Z,32.90
2017-10-14T04:15:37.222Z,40.23
2017-10-14T04:18:03.499Z,33.87
2017-10-14T04:20:30.143Z,44.33
2017-10-14T04:22:57.139Z,37.23
2017-10-14T04:25:24.907Z,39.33
2017-10-14T04:27:51.170Z,32.70
2017-10-14T04:30:17.430Z,36.57
2017-10-14T04:32:44.462Z,38.83
2017-10-14T04:35:11.484Z,34.03
2017-10-14T04:37:38.521Z,42.10
2017-10-14T04:40:04.823Z,34.43
2017-10-14T04:42:31.093Z,40.00
2017-10-14T04:44:57.372Z,37.63
2017-10-14T04:47:23.656Z,40.87
2017-10-14T04:49:49.930Z,42.67
2017-10-14T04:52:16.219Z,45.77
2017-10-14T04:54:42.514Z,38.07
2017-10-14T04:57:09.520Z,40.50
2017-10-14T04:59:35.771Z,48.67
2017-10-14T05:02:02.082Z,44.73
2017-10-14T05:04:28.346Z,40.53
2017-10-14T05:06:54.599Z,32.83
2017-10-14T05:09:20.971Z,42.77
2017-10-14T05:11:48.785Z,34.63
2017-10-14T05:14:15.047Z,41.70
2017-10-14T05:16:41.343Z,44.57
2017-10-14T05:19:07.587Z,46.57
2017-10-14T05:21:33.984Z,44.90
2017-10-14T05:24:00.262Z,43.40
2017-10-14T05:26:27.303Z,47.87
2017-10-14T05:28:53.566Z,40.90
2017-10-14T05:31:19.850Z,41.33
2017-10-14T05:33:46.090Z,51.10
2017-10-14T05:36:12.343Z,46.70
2017-10-14T05:38:38.615Z,46.77
2017-10-14T05:41:04.943Z,34.83
2017-10-14T05:43:31.265Z,43.57
2017-10-14T05:45:57.594Z,42.70
2017-10-14T05:48:23.925Z,51.70
2017-10-14T05:50:50.196Z,46.70
2017-10-14T05:53:16.462Z,46.90
2017-10-14T05:55:43.455Z,42.73
2017-10-14T05:58:09.944Z,37.67
2017-10-14T06:00:36.963Z,40.90
2017-10-14T06:03:03.235Z,38.27
2017-10-14T06:05:30.267Z,53.77
2017-10-14T06:07:56.539Z,50.40
2017-10-14T06:10:23.572Z,50.27
2017-10-14T06:12:50.555Z,51.40
2017-10-14T06:15:16.886Z,57.83
2017-10-14T06:17:43.135Z,49.73
2017-10-14T06:20:09.402Z,53.10
2017-10-14T06:22:35.799Z,54.83
2017-10-14T06:25:02.099Z,44.70
2017-10-14T06:27:28.386Z,48.33
2017-10-14T06:29:54.706Z,47.60
2017-10-14T06:32:20.985Z,45.03
2017-10-14T06:34:48.034Z,53.90
2017-10-14T06:37:14.297Z,47.60
2017-10-14T06:39:41.402Z,52.40
2017-10-14T06:42:07.691Z,49.33
2017-10-14T06:44:34.710Z,55.27
2017-10-14T06:47:01.088Z,35.43
2017-10-14T06:49:28.099Z,53.27
2017-10-14T06:51:54.410Z,51.00
2017-10-14T06:54:20.723Z,38.30
2017-10-14T06:56:46.996Z,53.30
2017-10-14T06:59:13.291Z,50.23
2017-10-14T07:01:40.318Z,47.17
2017-10-14T07:04:06.587Z,50.57
2017-10-14T07:06:32.929Z,53.33
2017-10-14T07:08:59.992Z,56.03
2017-10-14T07:11:26.253Z,52.27
2017-10-14T07:13:52.559Z,52.10
2017-10-14T07:16:18.829Z,46.40
2017-10-14T07:18:45.882Z,65.80
2017-10-14T07:21:12.157Z,44.77
2017-10-14T07:23:39.308Z,48.60
2017-10-14T07:26:06.327Z,42.90
2017-10-14T07:28:32.608Z,50.80
2017-10-14T07:30:58.870Z,59.60
2017-10-14T07:33:25.119Z,48.23
2017-10-14T07:35:51.433Z,49.97
2017-10-14T07:38:17.680Z,45.07
2017-10-14T07:40:43.972Z,42.23
2017-10-14T07:43:10.252Z,45.27
2017-10-14T07:45:36.557Z,39.40
2017-10-14T07:48:03.571Z,42.57
2017-10-14T07:50:30.590Z,34.70
2017-10-14T07:52:56.858Z,41.47
2017-10-14T07:55:23.155Z,37.23
2017-10-14T07:57:49.442Z,35.23
2017-10-14T08:00:15.715Z,35.10
2017-10-14T08:02:42.008Z,35.93
2017-10-14T08:05:08.297Z,38.80
2017-10-14T08:07:34.554Z,36.83
2017-10-14T08:10:01.633Z,33.40
2017-10-14T08:12:28.696Z,45.37
2017-10-14T08:14:55.702Z,44.27
2017-10-14T08:17:22.908Z,45.47
2017-10-14T08:19:52.400Z,35.80
2017-10-14T08:22:19.093Z,43.73
2017-10-14T08:24:45.507Z,37.37
2017-10-14T08:27:14.888Z,38.77
2017-10-14T08:29:42.621Z,48.30
2017-10-14T08:32:09.053Z,47.93
2017-10-14T08:34:35.356Z,39.17
2017-10-14T08:37:08.515Z,39.70
2017-10-14T08:39:41.871Z,39.33
2017-10-14T08:42:08.122Z,37.27
2017-10-14T08:44:34.366Z,33.77
2017-10-14T08:47:00.647Z,45.50
2017-10-14T08:49:26.901Z,38.57
2017-10-14T08:51:53.152Z,54.00
2017-10-14T08:54:19.448Z,44.20
2017-10-14T08:56:46.486Z,39.00
2017-10-14T08:59:13.479Z,41.57
2017-10-14T09:01:39.800Z,47.80
2017-10-14T09:04:06.056Z,47.30
2017-10-14T09:06:32.388Z,45.63
2017-10-14T09:08:58.677Z,47.43
2017-10-14T09:11:24.951Z,48.00
2017-10-14T09:13:51.249Z,53.70
2017-10-14T09:16:17.521Z,51.57
2017-10-14T09:18:43.765Z,55.63
2017-10-14T09:21:10.767Z,51.73
2017-10-14T09:23:37.067Z,49.07
2017-10-14T09:26:03.470Z,59.30
2017-10-14T09:28:29.749Z,50.57
2017-10-14T09:30:56.045Z,54.43
2017-10-14T09:33:23.057Z,53.13
2017-10-14T09:35:49.383Z,60.67
2017-10-14T09:38:15.775Z,57.87
2017-10-14T09:40:42.873Z,59.60
2017-10-14T09:43:09.906Z,72.07
2017-10-14T09:45:36.187Z,58.33
2017-10-14T09:48:02.464Z,68.17
2017-10-14T09:50:29.442Z,63.33
2017-10-14T09:52:55.707Z,59.10
2017-10-14T09:55:21.979Z,63.87
2017-10-14T09:57:48.289Z,66.33
2017-10-14T10:00:15.363Z,58.70
2017-10-14T10:02:42.392Z,64.90
2017-10-14T10:05:10.182Z,57.53
2017-10-14T10:07:37.224Z,62.67
2017-10-14T10:10:04.268Z,53.17
2017-10-14T10:12:30.515Z,45.40
2017-10-14T10:14:56.959Z,48.03
2017-10-14T10:17:23.446Z,46.93
2017-10-14T10:19:49.746Z,51.80
2017-10-14T10:22:16.027Z,45.23
2017-10-14T10:24:42.390Z,50.30
2017-10-14T10:27:08.785Z,51.27
2017-10-14T10:29:35.059Z,55.17
2017-10-14T10:32:02.170Z,46.73
2017-10-14T10:34:28.474Z,46.23
2017-10-14T10:36:55.550Z,46.57
2017-10-14T10:39:21.817Z,54.03
2017-10-14T10:41:48.112Z,58.07
2017-10-14T10:44:15.139Z,75.07
2017-10-14T10:46:42.199Z,65.03
2017-10-14T10:49:09.251Z,55.07
2017-10-14T10:51:35.556Z,52.30
2017-10-14T10:54:01.886Z,60.70
2017-10-14T10:56:28.155Z,70.30
2017-10-14T10:58:54.442Z,59.40
2017-10-14T11:01:20.714Z,63.60
2017-10-14T11:03:47.009Z,60.67
2017-10-14T11:06:13.294Z,56.80
2017-10-14T11:08:39.563Z,52.60
2017-10-14T11:11:05.827Z,58.93
2017-10-14T11:13:32.319Z,61.20
2017-10-14T11:15:58.712Z,53.17
2017-10-14T11:18:25.417Z,56.37
2017-10-14T11:20:52.539Z,51.40
2017-10-14T11:23:20.324Z,45.83
2017-10-14T11:25:46.583Z,47.03
2017-10-14T11:28:13.049Z,51.17
2017-10-14T11:30:39.312Z,66.47
2017-10-14T11:33:05.585Z,57.13
2017-10-14T11:35:32.135Z,52.17
2017-10-14T11:37:59.250Z,58.20
2017-10-14T11:40:25.559Z,60.37
2017-10-14T11:42:51.869Z,55.30
2017-10-14T11:45:18.138Z,55.13
2017-10-14T11:47:44.413Z,51.00
2017-10-14T11:50:10.731Z,59.43
2017-10-14T11:52:36.982Z,56.67
2017-10-14T11:55:03.258Z,53.20
2017-10-14T11:57:29.540Z,54.50
2017-10-14T11:59:55.815Z,49.83
2017-10-14T12:02:22.087Z,47.70
2017-10-14T12:04:48.362Z,47.70
2017-10-14T12:07:14.639Z,49.53
2017-10-14T12:09:40.930Z,49.40
2017-10-14T12:12:07.959Z,53.67
2017-10-14T12:14:34.203Z,59.60
2017-10-14T12:17:00.445Z,60.17
2017-10-14T12:19:26.723Z,56.87
2017-10-14T12:21:53.002Z,62.90
2017-10-14T12:24:19.263Z,55.90
2017-10-14T12:26:46.297Z,64.00
2017-10-14T12:29:12.803Z,58.43
2017-10-14T12:31:39.065Z,61.00
2017-10-14T12:34:05.354Z,60.47
2017-10-14T12:36:31.641Z,61.70
2017-10-14T12:38:57.914Z,55.47
2017-10-14T12:41:24.946Z,62.87
2017-10-14T12:43:51.219Z,55.73
2017-10-14T12:46:17.492Z,66.20
2017-10-14T12:48:43.791Z,68.00
2017-10-14T12:51:10.091Z,63.60
2017-10-14T12:53:37.113Z,69.77
2017-10-14T12:56:03.382Z,66.27
2017-10-14T12:58:29.827Z,74.83
2017-10-14T13:00:56.825Z,70.20
2017-10-14T13:03:23.122Z,68.17
2017-10-14T13:05:49.371Z,69.10
2017-10-14T13:08:15.638Z,87.07
2017-10-14T13:10:41.933Z,77.53
2017-10-14T13:13:08.979Z,66.27
2017-10-14T13:15:35.977Z,73.37
2017-10-14T13:18:02.296Z,80.07
2017-10-14T13:20:28.563Z,64.13
2017-10-14T13:22:54.814Z,61.13
2017-10-14T13:25:21.102Z,68.33
2017-10-14T13:27:47.382Z,77.97
2017-10-14T13:30:13.790Z,85.57
2017-10-14T13:32:40.083Z,72.07
2017-10-14T13:35:06.319Z,69.93
2017-10-14T13:37:33.319Z,68.93
2017-10-14T13:39:59.692Z,67.57
2017-10-14T13:42:26.087Z,64.50
2017-10-14T13:44:53.243Z,77.13
2017-10-14T13:47:20.666Z,72.63
2017-10-14T13:49:47.054Z,68.73
2017-10-14T13:52:13.459Z,65.43
2017-10-14T13:54:39.910Z,70.17
2017-10-14T13:57:06.323Z,74.10
2017-10-14T13:59:33.595Z,79.90
2017-10-14T14:02:00.017Z,68.63
2017-10-14T14:04:26.424Z,79.20
2017-10-14T14:06:52.850Z,74.10
2017-10-14T14:09:20.016Z,82.57
2017-10-14T14:11:46.456Z,82.60
2017-10-14T14:14:12.906Z,87.87
2017-10-14T14:16:41.126Z,93.17
2017-10-14T14:19:08.153Z,96.13
2017-10-14T14:21:34.562Z,90.17
2017-10-14T14:24:01.664Z,87.33
2017-10-14T14:26:28.659Z,81.60
2017-10-14T14:28:54.931Z,85.17
2017-10-14T14:31:21.322Z,81.77
2017-10-14T14:33:47.639Z,88.40
2017-10-14T14:36:13.906Z,96.07
2017-10-14T14:38:40.196Z,96.20
2017-10-14T14:41:06.459Z,79.40
2017-10-14T14:43:32.774Z,110.30
2017-10-14T14:45:59.090Z,90.63
2017-10-14T14:48:25.366Z,73.23
2017-10-14T14:50:51.652Z,97.23
2017-10-14T14:53:17.952Z,97.93
2017-10-14T14:55:44.238Z,97.90
2017-10-14T14:58:11.262Z,90.97
2017-10-14T15:00:37.581Z,101.60
2017-10-14T15:03:03.846Z,93.17
2017-10-14T15:05:30.115Z,101.03
2017-10-14T15:07:56.427Z,90.60
2017-10-14T15:10:23.440Z,96.00
2017-10-14T15:12:49.725Z,109.97
2017-10-14T15:15:16.042Z,98.47
2017-10-14T15:17:43.096Z,104.17
2017-10-14T15:20:09.355Z,102.27
2017-10-14T15:22:35.654Z,102.00
2017-10-14T15:25:01.932Z,90.10
2017-10-14T15:27:28.202Z,91.70
2017-10-14T15:29:54.607Z,88.73
2017-10-14T15:32:21.222Z,73.87
2017-10-14T15:34:47.607Z,73.50
2017-10-14T15:37:14.117Z,75.50
2017-10-14T15:39:40.498Z,65.47
2017-10-14T15:42:14.702Z,69.23
2017-10-14T15:44:42.644Z,69.53
2017-10-14T15:47:09.870Z,59.10
2017-10-14T15:49:36.342Z,60.80
2017-10-14T15:52:02.767Z,59.80
2017-10-14T15:54:32.187Z,55.77
2017-10-14T15:56:58.626Z,54.70
2017-10-14T15:59:25.053Z,51.47
2017-10-14T16:01:52.339Z,56.53
2017-10-14T16:04:20.340Z,49.07
2017-10-14T16:06:47.509Z,55.77
2017-10-14T16:09:15.429Z,63.73
2017-10-14T16:11:41.853Z,56.60
2017-10-14T16:14:08.239Z,54.03
2017-10-14T16:16:35.387Z,51.07
2017-10-14T16:19:01.830Z,58.90
2017-10-14T16:21:29.148Z,52.33
2017-10-14T16:23:56.235Z,57.80
2017-10-14T16:26:22.572Z,58.27
2017-10-14T16:28:48.987Z,54.23
2017-10-14T16:31:15.346Z,58.50
2017-10-14T16:33:41.916Z,52.97
2017-10-14T16:36:10.032Z,57.77
2017-10-14T16:38:37.428Z,54.30
2017-10-14T16:41:04.698Z,62.20
2017-10-14T16:43:32.092Z,50.90
2017-10-14T16:45:59.246Z,56.27
2017-10-14T16:48:26.394Z,54.53
2017-10-14T16:50:52.861Z,54.13
2017-10-14T16:53:19.288Z,54.77
2017-10-14T16:55:46.765Z,56.73
2017-10-14T16:58:14.002Z,51.33
2017-10-14T17:00:41.143Z,64.13
2017-10-14T17:03:08.533Z,48.93
2017-10-14T17:05:34.954Z,55.80
2017-10-14T17:08:02.371Z,53.47
2017-10-14T17:10:30.211Z,40.57
2017-10-14T17:12:57.431Z,41.17
2017-10-14T17:15:23.861Z,51.17
2017-10-14T17:17:50.250Z,44.03
2017-10-14T17:20:17.272Z,46.93
2017-10-14T17:22:44.443Z,44.80
2017-10-14T17:25:10.867Z,42.23
2017-10-14T17:27:37.252Z,40.00
2017-10-14T17:30:03.815Z,49.13
2017-10-14T17:32:30.131Z,39.57
2017-10-14T17:34:57.439Z,33.43
2017-10-14T17:37:25.383Z,48.00
2017-10-14T17:39:51.818Z,35.23
2017-10-14T17:42:18.063Z,41.10
2017-10-14T17:44:44.326Z,32.30
2017-10-14T17:47:10.619Z,35.50
2017-10-14T17:49:36.884Z,49.20
2017-10-14T17:52:03.172Z,37.77
2017-10-14T17:54:29.478Z,39.60
2017-10-14T17:56:55.750Z,39.50
2017-10-14T17:59:22.014Z,38.83
2017-10-14T18:01:48.344Z,27.90
2017-10-14T18:04:14.624Z,40.53
2017-10-14T18:06:40.907Z,34.80
2017-10-14T18:09:07.178Z,30.57
2017-10-14T18:11:34.304Z,31.30
2017-10-14T18:14:00.580Z,39.70
2017-10-14T18:16:26.866Z,36.60
2017-10-14T18:18:53.154Z,45.57
2017-10-14T18:21:19.390Z,57.50
2017-10-14T18:23:45.682Z,36.20
2017-10-14T18:26:11.946Z,41.97
2017-10-14T18:28:38.257Z,35.83
2017-10-14T18:31:04.631Z,32.83
2017-10-14T18:33:31.662Z,40.37
2017-10-14T18:35:58.027Z,34.90
2017-10-14T18:38:25.078Z,37.73
2017-10-14T18:40:51.350Z,68.10
2017-10-14T18:43:18.388Z,171.30
2017-10-14T18:45:45.424Z,46.50
2017-10-14T18:48:11.727Z,48.33
2017-10-14T18:50:37.995Z,50.23
2017-10-14T18:53:04.281Z,59.27
2017-10-14T18:55:30.544Z,47.67
2017-10-14T18:57:56.779Z,67.80
2017-10-14T19:00:23.038Z,106.10
2017-10-14T19:02:50.760Z,48.40
2017-10-14T19:05:17.022Z,85.27
2017-10-14T19:07:43.299Z,137.50
2017-10-14T19:10:09.641Z,246.27
2017-10-14T19:12:35.966Z,69.57
2017-10-14T19:15:02.341Z,75.87
2017-10-14T19:17:28.629Z,57.40
2017-10-14T19:19:55.681Z,51.63
2017-10-14T19:22:21.959Z,49.20
2017-10-14T19:24:48.216Z,42.53
2017-10-14T19:27:14.519Z,37.40
2017-10-14T19:29:41.534Z,37.23
2017-10-14T19:32:07.808Z,42.40
2017-10-14T19:34:34.063Z,36.67
2017-10-14T19:37:00.498Z,29.63
2017-10-14T19:39:26.783Z,28.73
2017-10-14T19:41:53.795Z,39.47
2017-10-14T19:44:20.253Z,34.73
2017-10-14T19:46:46.559Z,36.13
2017-10-14T19:49:12.901Z,46.20
2017-10-14T19:51:39.209Z,48.27
2017-10-14T19:54:05.556Z,49.33
2017-10-14T19:56:31.861Z,41.67
2017-10-14T19:58:58.950Z,33.67
2017-10-14T20:01:25.426Z,35.70
2017-10-14T20:03:52.015Z,41.60
2017-10-14T20:06:18.330Z,39.80
2017-10-14T20:08:45.365Z,37.13
2017-10-14T20:11:11.635Z,36.40
2017-10-14T20:13:38.817Z,42.93
2017-10-14T20:16:05.116Z,42.03
2017-10-14T20:18:31.415Z,33.80
2017-10-14T20:20:57.706Z,41.73
2017-10-14T20:23:24.716Z,40.60
2017-10-14T20:25:50.998Z,47.60
2017-10-14T20:28:18.013Z,43.80
2017-10-14T20:30:44.288Z,35.50
2017-10-14T20:33:10.543Z,44.30
2017-10-14T20:35:36.822Z,43.03
2017-10-14T20:38:03.194Z,39.33
2017-10-14T20:40:29.502Z,45.20
2017-10-14T20:42:55.781Z,47.20
2017-10-14T20:45:22.033Z,38.20
2017-10-14T20:47:48.307Z,33.90
2017-10-14T20:50:16.079Z,44.93
2017-10-14T20:52:42.351Z,42.47
2017-10-14T20:55:08.647Z,59.40
2017-10-14T20:57:34.948Z,80.77
2017-10-14T21:00:01.242Z,65.50
2017-10-14T21:02:28.243Z,40.13
2017-10-14T21:04:54.554Z,35.30
2017-10-14T21:07:20.820Z,38.20
2017-10-14T21:09:47.079Z,43.27
2017-10-14T21:12:14.851Z,41.07
2017-10-14T21:14:41.111Z,36.37
2017-10-14T21:17:08.169Z,33.03
2017-10-14T21:19:34.478Z,51.80
2017-10-14T21:22:01.487Z,40.43
2017-10-14T21:24:27.730Z,45.60
2017-10-14T21:26:54.024Z,38.10
2017-10-14T21:29:21.006Z,38.83
2017-10-14T21:31:47.276Z,45.03
2017-10-14T21:34:13.571Z,35.00
2017-10-14T21:36:39.861Z,42.10
2017-10-14T21:39:06.327Z,33.17
2017-10-14T21:41:33.357Z,41.63
2017-10-14T21:43:59.640Z,40.47
2017-10-14T21:46:25.904Z,41.80
2017-10-14T21:48:52.196Z,42.87
2017-10-14T21:51:18.466Z,36.13
2017-10-14T21:53:44.719Z,38.70
2017-10-14T21:56:11.067Z,47.17
2017-10-14T21:58:39.017Z,45.07
2017-10-14T22:01:05.368Z,40.00
2017-10-14T22:03:31.672Z,46.27
2017-10-14T22:05:57.946Z,47.13
2017-10-14T22:08:24.247Z,46.87
2017-10-14T22:10:50.554Z,43.70
2017-10-14T22:13:17.543Z,40.27
2017-10-14T22:15:43.798Z,48.73
2017-10-14T22:18:11.764Z,53.13
2017-10-14T22:20:38.027Z,45.90
2017-10-14T22:23:05.022Z,44.50
2017-10-14T22:25:31.338Z,53.50
2017-10-14T22:27:57.618Z,119.43
2017-10-14T22:30:23.879Z,142.63
2017-10-14T22:32:50.938Z,83.97
2017-10-14T22:35:17.944Z,48.50
2017-10-14T22:37:44.207Z,54.73
2017-10-14T22:40:10.604Z,43.13
2017-10-14T22:42:36.850Z,61.53
2017-10-14T22:45:03.118Z,46.77
2017-10-14T22:47:29.431Z,46.40
2017-10-14T22:49:55.710Z,48.87
2017-10-14T22:52:21.966Z,58.43
2017-10-14T22:54:48.267Z,43.63
2017-10-14T22:57:14.523Z,46.70
2017-10-14T22:59:41.552Z,52.43
2017-10-14T23:02:08.604Z,51.43
2017-10-14T23:04:34.873Z,48.13
2017-10-14T23:07:01.150Z,49.40
2017-10-14T23:09:27.435Z,46.90
2017-10-14T23:11:53.715Z,46.27
2017-10-14T23:14:19.987Z,52.47
2017-10-14T23:16:46.284Z,53.50
2017-10-14T23:19:12.530Z,47.30
2017-10-14T23:21:38.878Z,55.70
2017-10-14T23:24:05.187Z,51.70
2017-10-14T23:26:31.426Z,61.70
2017-10-14T23:28:57.678Z,52.63
2017-10-14T23:31:23.978Z,54.20
2017-10-14T23:33:50.259Z,55.53
2017-10-14T23:36:16.542Z,60.73
2017-10-14T23:38:42.866Z,52.87
2017-10-14T23:41:10.014Z,59.03
2017-10-14T23:43:37.022Z,61.73
2017-10-14T23:46:03.376Z,56.80
2017-10-14T23:48:30.399Z,109.10
2017-10-14T23:50:56.654Z,100.33
2017-10-14T23:53:22.954Z,73.03
2017-10-14T23:55:49.216Z,69.93
2017-10-14T23:58:15.578Z,62.50
